sensor_id;sensor_type;location;lat;lon;timestamp;P1;durP1;ratioP1;P2;durP2;ratioP2
13743;SDS011;6943;52.368;9.966;2023-07-22T00:01:26;8.13;;;6.07;;
13743;SDS011;6943;52.368;9.966;2023-07-22T00:03:53;6.73;;;6.00;;
13743;SDS011;6943;52.368;9.966;2023-07-22T00:06:19;6.90;;;6.20;;
13743;SDS011;6943;52.368;9.966;2023-07-22T00:08:45;7.77;;;6.37;;
13743;SDS011;6943;52.368;9.966;2023-07-22T00:11:11;7.57;;;6.87;;
13743;SDS011;6943;52.368;9.966;2023-07-22T00:13:37;8.70;;;7.30;;
13743;SDS011;6943;52.368;9.966;2023-07-22T00:16:03;7.67;;;6.27;;
13743;SDS011;6943;52.368;9.966;2023-07-22T00:18:29;6.83;;;6.20;;
13743;SDS011;6943;52.368;9.966;2023-07-22T00:20:56;7.20;;;6.33;;
13743;SDS011;6943;52.368;9.966;2023-07-22T00:23:22;8.13;;;6.57;;
13743;SDS011;6943;52.368;9.966;2023-07-22T00:25:48;9.07;;;7.30;;
13743;SDS011;6943;52.368;9.966;2023-07-22T00:28:14;7.93;;;6.67;;
13743;SDS011;6943;52.368;9.966;2023-07-22T00:30:40;7.30;;;6.50;;
13743;SDS011;6943;52.368;9.966;2023-07-22T00:33:07;8.30;;;6.73;;
13743;SDS011;6943;52.368;9.966;2023-07-22T00:35:33;9.03;;;7.00;;
13743;SDS011;6943;52.368;9.966;2023-07-22T00:37:59;9.97;;;7.13;;
13743;SDS011;6943;52.368;9.966;2023-07-22T00:40:26;7.57;;;6.77;;
13743;SDS011;6943;52.368;9.966;2023-07-22T00:42:52;11.30;;;7.63;;
13743;SDS011;6943;52.368;9.966;2023-07-22T00:45:18;8.07;;;7.27;;
13743;SDS011;6943;52.368;9.966;2023-07-22T00:47:44;7.90;;;7.03;;
13743;SDS011;6943;52.368;9.966;2023-07-22T00:50:10;9.63;;;7.03;;
13743;SDS011;6943;52.368;9.966;2023-07-22T00:52:37;10.53;;;7.20;;
13743;SDS011;6943;52.368;9.966;2023-07-22T00:55:04;8.07;;;6.73;;
13743;SDS011;6943;52.368;9.966;2023-07-22T00:57:30;8.17;;;6.57;;
13743;SDS011;6943;52.368;9.966;2023-07-22T00:59:56;8.87;;;6.90;;
13743;SDS011;6943;52.368;9.966;2023-07-22T01:02:22;10.80;;;6.90;;
13743;SDS011;6943;52.368;9.966;2023-07-22T01:04:51;9.50;;;7.67;;
13743;SDS011;6943;52.368;9.966;2023-07-22T01:07:17;9.20;;;7.10;;
13743;SDS011;6943;52.368;9.966;2023-07-22T01:09:43;8.93;;;7.07;;
13743;SDS011;6943;52.368;9.966;2023-07-22T01:12:09;13.03;;;7.90;;
13743;SDS011;6943;52.368;9.966;2023-07-22T01:14:36;9.30;;;7.63;;
13743;SDS011;6943;52.368;9.966;2023-07-22T01:17:03;10.03;;;7.10;;
13743;SDS011;6943;52.368;9.966;2023-07-22T01:19:30;9.37;;;7.43;;
13743;SDS011;6943;52.368;9.966;2023-07-22T01:21:59;10.07;;;7.80;;
13743;SDS011;6943;52.368;9.966;2023-07-22T01:24:26;10.83;;;7.60;;
13743;SDS011;6943;52.368;9.966;2023-07-22T01:26:52;8.37;;;6.77;;
13743;SDS011;6943;52.368;9.966;2023-07-22T01:29:18;9.70;;;7.20;;
13743;SDS011;6943;52.368;9.966;2023-07-22T01:31:46;10.60;;;7.30;;
13743;SDS011;6943;52.368;9.966;2023-07-22T01:34:13;10.30;;;7.53;;
13743;SDS011;6943;52.368;9.966;2023-07-22T01:36:38;9.40;;;7.23;;
13743;SDS011;6943;52.368;9.966;2023-07-22T01:39:05;9.33;;;7.07;;
13743;SDS011;6943;52.368;9.966;2023-07-22T01:41:31;9.33;;;7.13;;
13743;SDS011;6943;52.368;9.966;2023-07-22T01:43:57;8.20;;;6.80;;
13743;SDS011;6943;52.368;9.966;2023-07-22T01:46:23;13.43;;;7.63;;
13743;SDS011;6943;52.368;9.966;2023-07-22T01:48:49;8.10;;;6.90;;
13743;SDS011;6943;52.368;9.966;2023-07-22T01:51:14;12.13;;;7.07;;
13743;SDS011;6943;52.368;9.966;2023-07-22T01:53:41;8.77;;;6.63;;
13743;SDS011;6943;52.368;9.966;2023-07-22T01:56:07;10.70;;;7.80;;
13743;SDS011;6943;52.368;9.966;2023-07-22T01:58:33;9.70;;;6.97;;
13743;SDS011;6943;52.368;9.966;2023-07-22T02:00:59;15.77;;;7.83;;
13743;SDS011;6943;52.368;9.966;2023-07-22T02:03:26;9.80;;;7.57;;
13743;SDS011;6943;52.368;9.966;2023-07-22T02:05:52;11.83;;;7.90;;
13743;SDS011;6943;52.368;9.966;2023-07-22T02:08:19;9.50;;;7.53;;
13743;SDS011;6943;52.368;9.966;2023-07-22T02:10:45;9.57;;;6.97;;
13743;SDS011;6943;52.368;9.966;2023-07-22T02:13:11;9.73;;;7.10;;
13743;SDS011;6943;52.368;9.966;2023-07-22T02:15:37;10.97;;;7.03;;
13743;SDS011;6943;52.368;9.966;2023-07-22T02:18:03;11.77;;;7.70;;
13743;SDS011;6943;52.368;9.966;2023-07-22T02:20:29;11.27;;;7.33;;
13743;SDS011;6943;52.368;9.966;2023-07-22T02:22:55;11.40;;;7.33;;
13743;SDS011;6943;52.368;9.966;2023-07-22T02:25:21;9.60;;;7.57;;
13743;SDS011;6943;52.368;9.966;2023-07-22T02:27:47;12.80;;;7.83;;
13743;SDS011;6943;52.368;9.966;2023-07-22T02:30:13;12.60;;;8.57;;
13743;SDS011;6943;52.368;9.966;2023-07-22T02:32:40;12.90;;;8.13;;
13743;SDS011;6943;52.368;9.966;2023-07-22T02:35:06;11.47;;;7.93;;
13743;SDS011;6943;52.368;9.966;2023-07-22T02:37:33;11.03;;;8.50;;
13743;SDS011;6943;52.368;9.966;2023-07-22T02:39:59;11.10;;;8.30;;
13743;SDS011;6943;52.368;9.966;2023-07-22T02:42:25;11.77;;;7.40;;
13743;SDS011;6943;52.368;9.966;2023-07-22T02:44:51;10.10;;;7.53;;
13743;SDS011;6943;52.368;9.966;2023-07-22T02:47:17;11.03;;;7.73;;
13743;SDS011;6943;52.368;9.966;2023-07-22T02:49:43;12.50;;;8.37;;
13743;SDS011;6943;52.368;9.966;2023-07-22T02:52:10;11.10;;;7.73;;
13743;SDS011;6943;52.368;9.966;2023-07-22T02:54:38;11.60;;;8.07;;
13743;SDS011;6943;52.368;9.966;2023-07-22T02:57:04;12.20;;;8.30;;
13743;SDS011;6943;52.368;9.966;2023-07-22T02:59:30;11.27;;;8.10;;
13743;SDS011;6943;52.368;9.966;2023-07-22T03:01:57;9.63;;;8.63;;
13743;SDS011;6943;52.368;9.966;2023-07-22T03:04:23;12.17;;;8.90;;
13743;SDS011;6943;52.368;9.966;2023-07-22T03:06:48;10.70;;;8.70;;
13743;SDS011;6943;52.368;9.966;2023-07-22T03:09:14;11.13;;;8.73;;
13743;SDS011;6943;52.368;9.966;2023-07-22T03:11:40;11.83;;;8.27;;
13743;SDS011;6943;52.368;9.966;2023-07-22T03:14:06;12.30;;;9.23;;
13743;SDS011;6943;52.368;9.966;2023-07-22T03:16:32;13.80;;;9.70;;
13743;SDS011;6943;52.368;9.966;2023-07-22T03:18:58;13.60;;;8.60;;
13743;SDS011;6943;52.368;9.966;2023-07-22T03:21:24;11.77;;;8.83;;
13743;SDS011;6943;52.368;9.966;2023-07-22T03:23:50;12.03;;;9.73;;
13743;SDS011;6943;52.368;9.966;2023-07-22T03:26:16;12.87;;;9.37;;
13743;SDS011;6943;52.368;9.966;2023-07-22T03:28:42;15.10;;;9.83;;
13743;SDS011;6943;52.368;9.966;2023-07-22T03:31:08;11.40;;;8.90;;
13743;SDS011;6943;52.368;9.966;2023-07-22T03:33:34;11.03;;;9.07;;
13743;SDS011;6943;52.368;9.966;2023-07-22T03:36:00;10.97;;;9.53;;
13743;SDS011;6943;52.368;9.966;2023-07-22T03:38:26;12.23;;;8.70;;
13743;SDS011;6943;52.368;9.966;2023-07-22T03:40:52;13.00;;;9.67;;
13743;SDS011;6943;52.368;9.966;2023-07-22T03:43:18;11.10;;;9.27;;
13743;SDS011;6943;52.368;9.966;2023-07-22T03:45:44;11.23;;;9.30;;
13743;SDS011;6943;52.368;9.966;2023-07-22T03:48:10;15.37;;;8.87;;
13743;SDS011;6943;52.368;9.966;2023-07-22T03:50:36;13.90;;;8.67;;
13743;SDS011;6943;52.368;9.966;2023-07-22T03:53:02;11.83;;;8.43;;
13743;SDS011;6943;52.368;9.966;2023-07-22T03:55:28;13.17;;;9.30;;
13743;SDS011;6943;52.368;9.966;2023-07-22T03:57:53;13.37;;;9.50;;
13743;SDS011;6943;52.368;9.966;2023-07-22T04:00:20;13.33;;;8.77;;
13743;SDS011;6943;52.368;9.966;2023-07-22T04:02:46;9.70;;;7.77;;
13743;SDS011;6943;52.368;9.966;2023-07-22T04:05:12;11.33;;;8.10;;
13743;SDS011;6943;52.368;9.966;2023-07-22T04:07:38;10.60;;;8.07;;
13743;SDS011;6943;52.368;9.966;2023-07-22T04:10:04;9.93;;;7.87;;
13743;SDS011;6943;52.368;9.966;2023-07-22T04:12:31;9.20;;;7.70;;
13743;SDS011;6943;52.368;9.966;2023-07-22T04:14:56;8.97;;;7.33;;
13743;SDS011;6943;52.368;9.966;2023-07-22T04:17:22;8.33;;;7.27;;
13743;SDS011;6943;52.368;9.966;2023-07-22T04:19:50;8.53;;;6.00;;
13743;SDS011;6943;52.368;9.966;2023-07-22T04:22:17;10.30;;;7.40;;
13743;SDS011;6943;52.368;9.966;2023-07-22T04:24:42;10.23;;;7.00;;
13743;SDS011;6943;52.368;9.966;2023-07-22T04:27:08;11.57;;;6.67;;
13743;SDS011;6943;52.368;9.966;2023-07-22T04:29:35;8.63;;;6.80;;
13743;SDS011;6943;52.368;9.966;2023-07-22T04:32:01;9.27;;;6.37;;
13743;SDS011;6943;52.368;9.966;2023-07-22T04:34:29;7.87;;;6.40;;
13743;SDS011;6943;52.368;9.966;2023-07-22T04:36:55;8.77;;;6.47;;
13743;SDS011;6943;52.368;9.966;2023-07-22T04:39:21;7.80;;;6.30;;
13743;SDS011;6943;52.368;9.966;2023-07-22T04:41:48;7.03;;;5.90;;
13743;SDS011;6943;52.368;9.966;2023-07-22T04:44:14;9.57;;;7.13;;
13743;SDS011;6943;52.368;9.966;2023-07-22T04:46:40;9.13;;;6.95;;
13743;SDS011;6943;52.368;9.966;2023-07-22T04:49:05;11.43;;;6.88;;
13743;SDS011;6943;52.368;9.966;2023-07-22T04:51:31;8.43;;;5.95;;
13743;SDS011;6943;52.368;9.966;2023-07-22T04:53:57;7.68;;;6.05;;
13743;SDS011;6943;52.368;9.966;2023-07-22T04:56:23;9.35;;;6.85;;
13743;SDS011;6943;52.368;9.966;2023-07-22T04:58:49;7.93;;;6.43;;
13743;SDS011;6943;52.368;9.966;2023-07-22T05:01:15;9.67;;;6.30;;
13743;SDS011;6943;52.368;9.966;2023-07-22T05:03:41;10.77;;;6.70;;
13743;SDS011;6943;52.368;9.966;2023-07-22T05:06:08;8.53;;;6.67;;
13743;SDS011;6943;52.368;9.966;2023-07-22T05:08:34;7.30;;;6.13;;
13743;SDS011;6943;52.368;9.966;2023-07-22T05:11:02;8.07;;;6.20;;
13743;SDS011;6943;52.368;9.966;2023-07-22T05:13:29;10.13;;;5.87;;
13743;SDS011;6943;52.368;9.966;2023-07-22T05:15:55;11.03;;;7.17;;
13743;SDS011;6943;52.368;9.966;2023-07-22T05:18:21;9.63;;;6.80;;
13743;SDS011;6943;52.368;9.966;2023-07-22T05:20:46;8.73;;;5.90;;
13743;SDS011;6943;52.368;9.966;2023-07-22T05:23:12;8.27;;;6.03;;
13743;SDS011;6943;52.368;9.966;2023-07-22T05:25:38;9.23;;;6.17;;
13743;SDS011;6943;52.368;9.966;2023-07-22T05:28:04;8.50;;;6.53;;
13743;SDS011;6943;52.368;9.966;2023-07-22T05:30:30;9.67;;;6.40;;
13743;SDS011;6943;52.368;9.966;2023-07-22T05:32:56;7.70;;;6.17;;
13743;SDS011;6943;52.368;9.966;2023-07-22T05:35:22;10.17;;;6.00;;
13743;SDS011;6943;52.368;9.966;2023-07-22T05:37:48;6.87;;;5.90;;
13743;SDS011;6943;52.368;9.966;2023-07-22T05:40:14;6.13;;;5.45;;
13743;SDS011;6943;52.368;9.966;2023-07-22T05:42:40;9.80;;;6.65;;
13743;SDS011;6943;52.368;9.966;2023-07-22T05:45:06;6.97;;;5.87;;
13743;SDS011;6943;52.368;9.966;2023-07-22T05:47:32;9.53;;;6.73;;
13743;SDS011;6943;52.368;9.966;2023-07-22T05:49:58;8.63;;;6.27;;
13743;SDS011;6943;52.368;9.966;2023-07-22T05:52:24;8.53;;;5.87;;
13743;SDS011;6943;52.368;9.966;2023-07-22T05:54:50;7.67;;;6.00;;
13743;SDS011;6943;52.368;9.966;2023-07-22T05:57:16;7.97;;;5.83;;
13743;SDS011;6943;52.368;9.966;2023-07-22T05:59:42;11.33;;;6.93;;
13743;SDS011;6943;52.368;9.966;2023-07-22T06:02:08;8.47;;;6.40;;
13743;SDS011;6943;52.368;9.966;2023-07-22T06:04:35;10.40;;;6.43;;
13743;SDS011;6943;52.368;9.966;2023-07-22T06:07:01;10.97;;;6.53;;
13743;SDS011;6943;52.368;9.966;2023-07-22T06:09:27;10.87;;;5.90;;
13743;SDS011;6943;52.368;9.966;2023-07-22T06:11:53;10.43;;;6.00;;
13743;SDS011;6943;52.368;9.966;2023-07-22T06:14:19;8.70;;;5.83;;
13743;SDS011;6943;52.368;9.966;2023-07-22T06:16:45;9.40;;;6.47;;
13743;SDS011;6943;52.368;9.966;2023-07-22T06:19:11;8.83;;;6.07;;
13743;SDS011;6943;52.368;9.966;2023-07-22T06:21:37;8.40;;;6.03;;
13743;SDS011;6943;52.368;9.966;2023-07-22T06:24:02;9.37;;;5.90;;
13743;SDS011;6943;52.368;9.966;2023-07-22T06:26:28;7.87;;;6.47;;
13743;SDS011;6943;52.368;9.966;2023-07-22T06:28:54;10.85;;;6.50;;
13743;SDS011;6943;52.368;9.966;2023-07-22T06:31:20;7.85;;;5.55;;
13743;SDS011;6943;52.368;9.966;2023-07-22T06:33:46;7.72;;;6.15;;
13743;SDS011;6943;52.368;9.966;2023-07-22T06:36:12;7.20;;;5.72;;
13743;SDS011;6943;52.368;9.966;2023-07-22T06:38:38;8.35;;;6.60;;
13743;SDS011;6943;52.368;9.966;2023-07-22T06:41:04;7.05;;;6.35;;
13743;SDS011;6943;52.368;9.966;2023-07-22T06:43:30;9.30;;;6.25;;
13743;SDS011;6943;52.368;9.966;2023-07-22T06:45:56;8.98;;;6.47;;
13743;SDS011;6943;52.368;9.966;2023-07-22T06:48:22;8.43;;;6.13;;
13743;SDS011;6943;52.368;9.966;2023-07-22T06:50:48;9.73;;;6.35;;
13743;SDS011;6943;52.368;9.966;2023-07-22T06:53:14;9.90;;;6.80;;
13743;SDS011;6943;52.368;9.966;2023-07-22T06:55:47;9.05;;;6.35;;
13743;SDS011;6943;52.368;9.966;2023-07-22T06:58:13;8.77;;;6.32;;
13743;SDS011;6943;52.368;9.966;2023-07-22T07:00:39;11.70;;;6.77;;
13743;SDS011;6943;52.368;9.966;2023-07-22T07:03:05;8.50;;;6.03;;
13743;SDS011;6943;52.368;9.966;2023-07-22T07:05:31;9.80;;;6.53;;
13743;SDS011;6943;52.368;9.966;2023-07-22T07:07:57;8.43;;;6.47;;
13743;SDS011;6943;52.368;9.966;2023-07-22T07:10:23;7.90;;;6.00;;
13743;SDS011;6943;52.368;9.966;2023-07-22T07:12:48;9.13;;;5.93;;
13743;SDS011;6943;52.368;9.966;2023-07-22T07:15:15;9.13;;;6.70;;
13743;SDS011;6943;52.368;9.966;2023-07-22T07:17:40;7.87;;;6.60;;
13743;SDS011;6943;52.368;9.966;2023-07-22T07:20:06;9.30;;;6.43;;
13743;SDS011;6943;52.368;9.966;2023-07-22T07:22:36;8.75;;;6.53;;
13743;SDS011;6943;52.368;9.966;2023-07-22T07:25:02;8.77;;;6.05;;
13743;SDS011;6943;52.368;9.966;2023-07-22T07:27:28;7.90;;;6.80;;
13743;SDS011;6943;52.368;9.966;2023-07-22T07:29:53;9.57;;;6.60;;
13743;SDS011;6943;52.368;9.966;2023-07-22T07:32:19;7.47;;;5.88;;
13743;SDS011;6943;52.368;9.966;2023-07-22T07:34:46;8.00;;;6.57;;
13743;SDS011;6943;52.368;9.966;2023-07-22T07:37:12;8.02;;;7.00;;
13743;SDS011;6943;52.368;9.966;2023-07-22T07:39:38;10.27;;;7.47;;
13743;SDS011;6943;52.368;9.966;2023-07-22T07:42:04;8.90;;;6.88;;
13743;SDS011;6943;52.368;9.966;2023-07-22T07:44:30;10.63;;;6.60;;
13743;SDS011;6943;52.368;9.966;2023-07-22T07:46:56;9.87;;;7.87;;
13743;SDS011;6943;52.368;9.966;2023-07-22T07:49:21;11.50;;;8.00;;
13743;SDS011;6943;52.368;9.966;2023-07-22T07:51:48;10.20;;;8.03;;
13743;SDS011;6943;52.368;9.966;2023-07-22T07:54:14;9.87;;;7.77;;
13743;SDS011;6943;52.368;9.966;2023-07-22T07:56:40;10.10;;;7.60;;
13743;SDS011;6943;52.368;9.966;2023-07-22T07:59:06;9.70;;;6.97;;
13743;SDS011;6943;52.368;9.966;2023-07-22T08:01:34;11.30;;;8.23;;
13743;SDS011;6943;52.368;9.966;2023-07-22T08:04:02;8.55;;;6.93;;
13743;SDS011;6943;52.368;9.966;2023-07-22T08:06:28;9.25;;;7.57;;
13743;SDS011;6943;52.368;9.966;2023-07-22T08:08:54;10.65;;;6.97;;
13743;SDS011;6943;52.368;9.966;2023-07-22T08:11:20;7.75;;;6.90;;
13743;SDS011;6943;52.368;9.966;2023-07-22T08:13:46;7.82;;;7.03;;
13743;SDS011;6943;52.368;9.966;2023-07-22T08:16:12;8.43;;;6.90;;
13743;SDS011;6943;52.368;9.966;2023-07-22T08:18:38;7.72;;;7.03;;
13743;SDS011;6943;52.368;9.966;2023-07-22T08:21:04;8.95;;;7.60;;
13743;SDS011;6943;52.368;9.966;2023-07-22T08:23:34;9.63;;;7.50;;
13743;SDS011;6943;52.368;9.966;2023-07-22T08:26:00;8.68;;;7.70;;
13743;SDS011;6943;52.368;9.966;2023-07-22T08:28:27;9.25;;;7.13;;
13743;SDS011;6943;52.368;9.966;2023-07-22T08:30:56;8.90;;;6.93;;
13743;SDS011;6943;52.368;9.966;2023-07-22T08:33:22;9.98;;;7.55;;
13743;SDS011;6943;52.368;9.966;2023-07-22T08:35:50;8.18;;;7.38;;
13743;SDS011;6943;52.368;9.966;2023-07-22T08:38:16;10.27;;;7.70;;
13743;SDS011;6943;52.368;9.966;2023-07-22T08:40:42;9.68;;;6.90;;
13743;SDS011;6943;52.368;9.966;2023-07-22T08:43:10;8.33;;;6.83;;
13743;SDS011;6943;52.368;9.966;2023-07-22T08:45:37;9.90;;;7.07;;
13743;SDS011;6943;52.368;9.966;2023-07-22T08:48:04;11.90;;;7.33;;
13743;SDS011;6943;52.368;9.966;2023-07-22T08:50:33;9.38;;;6.50;;
13743;SDS011;6943;52.368;9.966;2023-07-22T08:53:00;7.88;;;6.38;;
13743;SDS011;6943;52.368;9.966;2023-07-22T08:55:26;7.85;;;6.43;;
13743;SDS011;6943;52.368;9.966;2023-07-22T08:57:53;7.25;;;6.55;;
13743;SDS011;6943;52.368;9.966;2023-07-22T09:00:19;8.70;;;7.30;;
13743;SDS011;6943;52.368;9.966;2023-07-22T09:02:45;7.55;;;6.32;;
13743;SDS011;6943;52.368;9.966;2023-07-22T09:05:11;7.72;;;7.03;;
13743;SDS011;6943;52.368;9.966;2023-07-22T09:07:37;7.72;;;6.93;;
13743;SDS011;6943;52.368;9.966;2023-07-22T09:10:04;8.98;;;7.28;;
13743;SDS011;6943;52.368;9.966;2023-07-22T09:12:30;8.68;;;7.88;;
13743;SDS011;6943;52.368;9.966;2023-07-22T09:14:57;8.80;;;7.97;;
13743;SDS011;6943;52.368;9.966;2023-07-22T09:17:23;8.85;;;7.97;;
13743;SDS011;6943;52.368;9.966;2023-07-22T09:19:52;8.68;;;7.90;;
13743;SDS011;6943;52.368;9.966;2023-07-22T09:22:24;8.70;;;7.75;;
13743;SDS011;6943;52.368;9.966;2023-07-22T09:24:49;9.57;;;8.52;;
13743;SDS011;6943;52.368;9.966;2023-07-22T09:27:18;8.55;;;7.75;;
13743;SDS011;6943;52.368;9.966;2023-07-22T09:29:57;8.70;;;7.80;;
13743;SDS011;6943;52.368;9.966;2023-07-22T09:32:34;10.38;;;7.70;;
13743;SDS011;6943;52.368;9.966;2023-07-22T09:35:01;9.90;;;8.10;;
13743;SDS011;6943;52.368;9.966;2023-07-22T09:37:36;9.25;;;8.30;;
13743;SDS011;6943;52.368;9.966;2023-07-22T09:40:16;10.32;;;8.40;;
13743;SDS011;6943;52.368;9.966;2023-07-22T09:42:45;11.63;;;8.98;;
13743;SDS011;6943;52.368;9.966;2023-07-22T09:45:11;10.90;;;9.32;;
13743;SDS011;6943;52.368;9.966;2023-07-22T09:47:41;11.15;;;9.93;;
13743;SDS011;6943;52.368;9.966;2023-07-22T09:50:08;11.45;;;9.95;;
13743;SDS011;6943;52.368;9.966;2023-07-22T09:52:41;11.55;;;9.77;;
13743;SDS011;6943;52.368;9.966;2023-07-22T09:55:07;11.10;;;9.20;;
13743;SDS011;6943;52.368;9.966;2023-07-22T09:57:33;9.13;;;8.07;;
13743;SDS011;6943;52.368;9.966;2023-07-22T09:59:59;9.52;;;8.55;;
13743;SDS011;6943;52.368;9.966;2023-07-22T10:02:25;9.05;;;8.10;;
13743;SDS011;6943;52.368;9.966;2023-07-22T10:04:52;8.27;;;7.47;;
13743;SDS011;6943;52.368;9.966;2023-07-22T10:07:18;9.82;;;8.77;;
13743;SDS011;6943;52.368;9.966;2023-07-22T10:09:45;8.48;;;7.60;;
13743;SDS011;6943;52.368;9.966;2023-07-22T10:12:11;8.48;;;7.50;;
13743;SDS011;6943;52.368;9.966;2023-07-22T10:14:39;8.40;;;7.50;;
13743;SDS011;6943;52.368;9.966;2023-07-22T10:17:06;7.50;;;6.75;;
13743;SDS011;6943;52.368;9.966;2023-07-22T10:19:34;5.82;;;5.32;;
13743;SDS011;6943;52.368;9.966;2023-07-22T10:22:00;7.03;;;6.32;;
13743;SDS011;6943;52.368;9.966;2023-07-22T10:24:26;7.15;;;6.38;;
13743;SDS011;6943;52.368;9.966;2023-07-22T10:26:53;7.32;;;6.57;;
13743;SDS011;6943;52.368;9.966;2023-07-22T10:29:19;7.18;;;6.03;;
13743;SDS011;6943;52.368;9.966;2023-07-22T10:31:45;7.43;;;6.70;;
13743;SDS011;6943;52.368;9.966;2023-07-22T10:34:20;7.10;;;5.90;;
13743;SDS011;6943;52.368;9.966;2023-07-22T10:36:46;9.40;;;6.90;;
13743;SDS011;6943;52.368;9.966;2023-07-22T10:39:17;8.55;;;7.13;;
13743;SDS011;6943;52.368;9.966;2023-07-22T10:41:50;7.32;;;6.40;;
13743;SDS011;6943;52.368;9.966;2023-07-22T10:44:25;8.07;;;6.65;;
13743;SDS011;6943;52.368;9.966;2023-07-22T10:46:58;7.35;;;6.47;;
13743;SDS011;6943;52.368;9.966;2023-07-22T10:49:24;7.60;;;6.72;;
13743;SDS011;6943;52.368;9.966;2023-07-22T10:51:53;6.97;;;6.25;;
13743;SDS011;6943;52.368;9.966;2023-07-22T10:54:31;6.15;;;5.57;;
13743;SDS011;6943;52.368;9.966;2023-07-22T10:57:02;6.85;;;6.03;;
13743;SDS011;6943;52.368;9.966;2023-07-22T10:59:28;6.40;;;5.53;;
13743;SDS011;6943;52.368;9.966;2023-07-22T11:01:58;6.93;;;5.07;;
13743;SDS011;6943;52.368;9.966;2023-07-22T11:04:24;7.95;;;6.10;;
13743;SDS011;6943;52.368;9.966;2023-07-22T11:06:56;5.70;;;5.20;;
13743;SDS011;6943;52.368;9.966;2023-07-22T11:12:07;5.32;;;4.65;;
13743;SDS011;6943;52.368;9.966;2023-07-22T11:14:39;4.78;;;4.28;;
13743;SDS011;6943;52.368;9.966;2023-07-22T11:17:06;4.85;;;4.35;;
13743;SDS011;6943;52.368;9.966;2023-07-22T11:19:36;4.70;;;4.18;;
13743;SDS011;6943;52.368;9.966;2023-07-22T11:22:02;6.28;;;4.13;;
13743;SDS011;6943;52.368;9.966;2023-07-22T11:24:28;6.38;;;4.47;;
13743;SDS011;6943;52.368;9.966;2023-07-22T11:26:54;6.05;;;5.15;;
13743;SDS011;6943;52.368;9.966;2023-07-22T11:29:21;5.70;;;4.53;;
13743;SDS011;6943;52.368;9.966;2023-07-22T11:31:48;5.95;;;5.10;;
13743;SDS011;6943;52.368;9.966;2023-07-22T11:34:19;5.70;;;5.20;;
13743;SDS011;6943;52.368;9.966;2023-07-22T11:36:45;6.78;;;5.38;;
13743;SDS011;6943;52.368;9.966;2023-07-22T11:39:13;5.30;;;4.82;;
13743;SDS011;6943;52.368;9.966;2023-07-22T11:41:39;6.55;;;4.80;;
13743;SDS011;6943;52.368;9.966;2023-07-22T11:44:06;5.97;;;5.22;;
13743;SDS011;6943;52.368;9.966;2023-07-22T11:46:34;5.53;;;4.93;;
13743;SDS011;6943;52.368;9.966;2023-07-22T11:49:00;5.30;;;4.75;;
13743;SDS011;6943;52.368;9.966;2023-07-22T11:51:26;5.80;;;5.20;;
13743;SDS011;6943;52.368;9.966;2023-07-22T11:53:53;6.65;;;5.28;;
13743;SDS011;6943;52.368;9.966;2023-07-22T11:58:48;5.90;;;4.95;;
13743;SDS011;6943;52.368;9.966;2023-07-22T12:01:14;7.10;;;5.15;;
13743;SDS011;6943;52.368;9.966;2023-07-22T12:03:40;5.32;;;4.80;;
13743;SDS011;6943;52.368;9.966;2023-07-22T12:06:06;5.43;;;4.93;;
13743;SDS011;6943;52.368;9.966;2023-07-22T12:08:33;6.72;;;5.03;;
13743;SDS011;6943;52.368;9.966;2023-07-22T12:11:00;7.53;;;5.25;;
13743;SDS011;6943;52.368;9.966;2023-07-22T12:13:27;6.80;;;5.30;;
13743;SDS011;6943;52.368;9.966;2023-07-22T12:16:02;5.15;;;4.65;;
13743;SDS011;6943;52.368;9.966;2023-07-22T12:18:40;5.55;;;4.90;;
13743;SDS011;6943;52.368;9.966;2023-07-22T12:21:06;5.07;;;4.57;;
13743;SDS011;6943;52.368;9.966;2023-07-22T12:23:33;5.18;;;4.28;;
13743;SDS011;6943;52.368;9.966;2023-07-22T12:25:59;5.90;;;4.40;;
13743;SDS011;6943;52.368;9.966;2023-07-22T12:28:25;5.93;;;5.07;;
13743;SDS011;6943;52.368;9.966;2023-07-22T12:30:51;6.43;;;5.47;;
13743;SDS011;6943;52.368;9.966;2023-07-22T12:33:17;5.45;;;4.93;;
13743;SDS011;6943;52.368;9.966;2023-07-22T12:35:43;6.88;;;5.10;;
13743;SDS011;6943;52.368;9.966;2023-07-22T12:38:09;7.55;;;4.57;;
13743;SDS011;6943;52.368;9.966;2023-07-22T12:40:35;5.75;;;5.25;;
13743;SDS011;6943;52.368;9.966;2023-07-22T12:43:01;6.07;;;5.43;;
13743;SDS011;6943;52.368;9.966;2023-07-22T12:45:27;6.00;;;5.07;;
13743;SDS011;6943;52.368;9.966;2023-07-22T12:47:53;6.18;;;4.93;;
13743;SDS011;6943;52.368;9.966;2023-07-22T12:50:19;6.32;;;4.25;;
13743;SDS011;6943;52.368;9.966;2023-07-22T12:52:45;5.32;;;4.80;;
13743;SDS011;6943;52.368;9.966;2023-07-22T12:55:11;6.22;;;4.95;;
13743;SDS011;6943;52.368;9.966;2023-07-22T12:57:37;6.38;;;5.00;;
13743;SDS011;6943;52.368;9.966;2023-07-22T13:00:03;5.70;;;5.20;;
13743;SDS011;6943;52.368;9.966;2023-07-22T13:02:34;5.15;;;4.50;;
13743;SDS011;6943;52.368;9.966;2023-07-22T13:05:00;6.25;;;5.03;;
13743;SDS011;6943;52.368;9.966;2023-07-22T13:07:26;5.50;;;5.00;;
13743;SDS011;6943;52.368;9.966;2023-07-22T13:09:52;6.75;;;4.80;;
13743;SDS011;6943;52.368;9.966;2023-07-22T13:12:21;6.25;;;4.97;;
13743;SDS011;6943;52.368;9.966;2023-07-22T13:14:47;5.28;;;4.75;;
13743;SDS011;6943;52.368;9.966;2023-07-22T13:17:13;5.93;;;5.13;;
13743;SDS011;6943;52.368;9.966;2023-07-22T13:19:39;5.22;;;4.63;;
13743;SDS011;6943;52.368;9.966;2023-07-22T13:22:05;7.45;;;4.82;;
13743;SDS011;6943;52.368;9.966;2023-07-22T13:24:31;6.63;;;5.05;;
13743;SDS011;6943;52.368;9.966;2023-07-22T13:26:57;7.97;;;4.72;;
13743;SDS011;6943;52.368;9.966;2023-07-22T13:29:23;5.82;;;4.55;;
13743;SDS011;6943;52.368;9.966;2023-07-22T13:31:48;7.25;;;4.97;;
13743;SDS011;6943;52.368;9.966;2023-07-22T13:34:14;7.13;;;4.97;;
13743;SDS011;6943;52.368;9.966;2023-07-22T13:36:40;6.35;;;5.35;;
13743;SDS011;6943;52.368;9.966;2023-07-22T13:39:07;6.10;;;5.28;;
13743;SDS011;6943;52.368;9.966;2023-07-22T13:41:33;5.80;;;4.43;;
13743;SDS011;6943;52.368;9.966;2023-07-22T13:43:58;6.38;;;5.00;;
13743;SDS011;6943;52.368;9.966;2023-07-22T13:46:25;5.85;;;5.32;;
13743;SDS011;6943;52.368;9.966;2023-07-22T13:48:50;5.18;;;4.68;;
13743;SDS011;6943;52.368;9.966;2023-07-22T13:51:16;5.22;;;4.72;;
13743;SDS011;6943;52.368;9.966;2023-07-22T13:53:42;5.80;;;5.22;;
13743;SDS011;6943;52.368;9.966;2023-07-22T13:56:08;6.22;;;5.13;;
13743;SDS011;6943;52.368;9.966;2023-07-22T13:58:34;7.18;;;5.78;;
13743;SDS011;6943;52.368;9.966;2023-07-22T14:01:00;6.05;;;5.00;;
13743;SDS011;6943;52.368;9.966;2023-07-22T14:03:26;5.60;;;5.10;;
13743;SDS011;6943;52.368;9.966;2023-07-22T14:05:52;6.65;;;5.40;;
13743;SDS011;6943;52.368;9.966;2023-07-22T14:08:18;5.28;;;4.78;;
13743;SDS011;6943;52.368;9.966;2023-07-22T14:10:44;8.57;;;5.43;;
13743;SDS011;6943;52.368;9.966;2023-07-22T14:13:10;5.93;;;5.32;;
13743;SDS011;6943;52.368;9.966;2023-07-22T14:15:36;5.47;;;4.97;;
13743;SDS011;6943;52.368;9.966;2023-07-22T14:18:02;5.60;;;5.10;;
13743;SDS011;6943;52.368;9.966;2023-07-22T14:20:28;5.82;;;5.32;;
13743;SDS011;6943;52.368;9.966;2023-07-22T14:22:55;6.25;;;5.38;;
13743;SDS011;6943;52.368;9.966;2023-07-22T14:25:21;6.65;;;5.55;;
13743;SDS011;6943;52.368;9.966;2023-07-22T14:27:47;5.68;;;5.15;;
13743;SDS011;6943;52.368;9.966;2023-07-22T14:30:13;5.55;;;5.05;;
13743;SDS011;6943;52.368;9.966;2023-07-22T14:32:39;5.97;;;5.47;;
13743;SDS011;6943;52.368;9.966;2023-07-22T14:35:05;6.05;;;5.53;;
13743;SDS011;6943;52.368;9.966;2023-07-22T14:37:31;6.90;;;6.25;;
13743;SDS011;6943;52.368;9.966;2023-07-22T14:39:57;8.88;;;5.65;;
13743;SDS011;6943;52.368;9.966;2023-07-22T14:42:23;5.90;;;5.13;;
13743;SDS011;6943;52.368;9.966;2023-07-22T14:44:49;6.22;;;5.50;;
13743;SDS011;6943;52.368;9.966;2023-07-22T14:47:15;6.53;;;5.93;;
13743;SDS011;6943;52.368;9.966;2023-07-22T14:49:41;6.95;;;6.25;;
13743;SDS011;6943;52.368;9.966;2023-07-22T14:52:07;6.35;;;5.05;;
13743;SDS011;6943;52.368;9.966;2023-07-22T14:54:33;6.97;;;5.93;;
13743;SDS011;6943;52.368;9.966;2023-07-22T14:56:59;6.30;;;5.78;;
13743;SDS011;6943;52.368;9.966;2023-07-22T14:59:25;6.25;;;5.65;;